Albany Center, Vermont
Current Conditions -  °F | °C
As of 3:55 AM on Thursday 23 Oct 2014 (Local Time) from KEFK Reporting Station
Overcast Overcast  
Wind Chill: 36°   Ceiling: 2100
Heat Index: 43°   Visibility: 10mi
Dew Point: 37°   Wind: 15mph
Humidity: 78%   Direction: 360°N
Pressure: 30.04"   Gusts: 24mph
Location:  44.8143°N, 72.284°W
Report Text: KEFK 230755Z AUTO 36013G21KT 10SM OVC021 06/03 A3004 RMK AO2 T00630027
Loading
Personal Weather Stations






























Interactive Weather Map New forecast layout! Learn more

10-Day Weather Forecast

Advertisements
Track Severe Weather on mobile